Barksdale Air Force Base
KBAD : now visible

Airfield :











YOU CAN JOIN US ON...

 
LOGIN :

Register | Disclaimer

   EN    FR    IT 

 









Legend :    VFR   Marginal VFR   IFR   Intensive IFR   Very Intensive IFR
Visi :
Ceiling :
>= 8 km
>= 3000ft
5 to 8 km
1000 to 3000 ft
1500m to 5 km
500 to 1000 ft
800 to 1500m
200 to 500 ft
< 800m
< 200 ft
Symbols :   Thunderstorms  Fog  Heavy snow  Heavy precipitations  Wind > 20 kt






- Airport Elevation : 166 ft


KBAD - Barksdale Air Force Base

CURRENT METAR :
  • 292255Z AUTO 17007KT 10SM CLR 27/21 A3002 RMK AO2 SLP168 T02720212

EXPIRED METARs :
  • 292155Z AUTO 17009KT 10SM FEW026 FEW140 28/21 A3001 RMK AO2 SLP165 T02810209
  • 292055Z AUTO 15003KT 10SM FEW022 28/21 A3001 RMK AO2 SLP165 60000 T02840206 57033
  • 291955Z AUTO 11003KT 10SM SCT100 BKN160 26/21 A3004 RMK AO2 SLP175 T02590207

TAF TAF KBAD
Valid from the 29 at 20:00 until the 31 at 02:00 UTC


291950Z 2920/3102 11006KT 9999 BKN100 QNH3003INS
BECMG 3016/3017 10010KT 9999 BKN020 QNH2995INS
BECMG 3020/3021 12010KT 9999 VCTS BKN040CB QNH2994INS TX28/2921Z TN20/3012Z
KZFW FIR / North America



MET'MAP, your aeronautical weather chart ! - Copyright ORBIFLY December 2007 - Disclaimer

ORBIFLY MET'MAP TEAM :

Programming & Development : Alexandra Zaïnal
Original concept : Baudouin d'Aumeries
Technical & hardware support : Manuel Goepfert
Assistance : Marc-Olivier Méhu




SOURCES & CREDITS :

   NOAA       Earth
Advisory